createdAt,value
2023-04-14T00:00:42.337Z,4.93
2023-04-14T00:03:09.368Z,8.60
2023-04-14T00:05:37.947Z,4.67
2023-04-14T00:08:04.820Z,5.00
2023-04-14T00:10:32.252Z,5.50
2023-04-14T00:13:00.262Z,5.83
2023-04-14T00:15:27.159Z,3.10
2023-04-14T00:17:54.188Z,3.57
2023-04-14T00:20:21.048Z,5.20
2023-04-14T00:22:49.296Z,4.13
2023-04-14T00:25:16.273Z,5.30
2023-04-14T00:27:43.213Z,4.20
2023-04-14T00:30:10.823Z,5.47
2023-04-14T00:32:41.216Z,4.03
2023-04-14T00:35:08.633Z,3.77
2023-04-14T00:37:35.427Z,4.63
2023-04-14T00:40:03.894Z,5.13
2023-04-14T00:42:31.921Z,6.30
2023-04-14T00:44:58.861Z,6.33
2023-04-14T00:47:26.996Z,5.17
2023-04-14T00:49:53.899Z,8.07
2023-04-14T00:52:23.521Z,4.47
2023-04-14T00:54:50.700Z,4.17
2023-04-14T00:57:19.003Z,5.97
2023-04-14T00:59:46.003Z,4.23
2023-04-14T01:02:13.046Z,6.23
2023-04-14T01:04:52.563Z,10.57
2023-04-14T01:07:23.243Z,8.10
2023-04-14T01:09:50.530Z,4.97
2023-04-14T01:12:31.651Z,3.60
2023-04-14T01:15:08.696Z,5.80
2023-04-14T01:17:39.883Z,7.40
2023-04-14T01:20:13.261Z,7.53
2023-04-14T01:22:49.147Z,5.63
2023-04-14T01:25:33.009Z,3.73
2023-04-14T01:28:13.951Z,4.47
2023-04-14T01:30:59.248Z,4.57
2023-04-14T01:33:31.369Z,5.17
2023-04-14T01:36:04.020Z,6.30
2023-04-14T01:38:34.355Z,5.00
2023-04-14T01:41:04.441Z,3.03
2023-04-14T01:43:33.915Z,7.10
2023-04-14T01:46:06.992Z,3.47
2023-04-14T01:48:36.224Z,2.77
2023-04-14T01:51:05.917Z,3.43
2023-04-14T01:53:36.097Z,8.57
2023-04-14T01:56:04.589Z,9.13
2023-04-14T01:58:32.385Z,4.83
2023-04-14T02:01:03.092Z,4.77
2023-04-14T02:03:31.511Z,4.23
2023-04-14T02:06:02.026Z,5.77
2023-04-14T02:08:31.679Z,2.30
2023-04-14T02:11:00.759Z,5.80
2023-04-14T02:13:29.960Z,4.40
2023-04-14T02:15:59.145Z,3.67
2023-04-14T02:18:28.284Z,4.53
2023-04-14T02:20:57.664Z,6.67
2023-04-14T02:23:25.934Z,4.33
2023-04-14T02:25:57.362Z,5.43
2023-04-14T02:28:30.265Z,5.80
2023-04-14T02:30:58.504Z,5.10
2023-04-14T02:33:31.472Z,6.33
2023-04-14T02:36:02.070Z,9.07
2023-04-14T02:38:35.275Z,5.93
2023-04-14T02:41:08.159Z,4.93
2023-04-14T02:43:44.179Z,4.73
2023-04-14T02:46:14.339Z,4.87
2023-04-14T02:48:43.006Z,4.37
2023-04-14T02:51:13.378Z,5.03
2023-04-14T02:53:41.676Z,3.27
2023-04-14T02:56:08.915Z,3.10
2023-04-14T02:58:36.901Z,2.70
2023-04-14T03:01:04.835Z,2.97
2023-04-14T03:03:35.384Z,3.47
2023-04-14T03:06:04.172Z,4.07
2023-04-14T03:08:31.691Z,2.97
2023-04-14T03:11:01.200Z,2.93
2023-04-14T03:13:31.110Z,6.03
2023-04-14T03:15:59.419Z,2.80
2023-04-14T03:18:27.417Z,3.37
2023-04-14T03:20:55.923Z,2.87
2023-04-14T03:23:25.262Z,3.30
2023-04-14T03:25:53.205Z,3.03
2023-04-14T03:28:24.881Z,6.20
2023-04-14T03:30:54.213Z,2.63
2023-04-14T03:33:24.654Z,6.10
2023-04-14T03:35:53.522Z,5.17
2023-04-14T03:38:21.608Z,3.80
2023-04-14T03:40:50.357Z,6.33
2023-04-14T03:43:20.091Z,4.53
2023-04-14T03:45:49.337Z,3.80
2023-04-14T03:48:19.082Z,3.70
2023-04-14T03:50:49.452Z,4.47
2023-04-14T03:53:18.770Z,8.20
2023-04-14T03:55:47.919Z,7.87
2023-04-14T03:58:17.066Z,8.90
2023-04-14T04:00:45.343Z,10.33
2023-04-14T04:03:15.066Z,6.00
2023-04-14T04:05:43.038Z,5.90
2023-04-14T04:08:11.209Z,4.43
2023-04-14T04:10:38.869Z,7.70
2023-04-14T04:13:10.187Z,6.73
2023-04-14T04:15:39.258Z,6.87
2023-04-14T04:18:08.109Z,7.80
2023-04-14T04:20:38.702Z,5.13
2023-04-14T04:23:07.578Z,5.77
2023-04-14T04:25:36.403Z,7.53
2023-04-14T04:28:03.825Z,9.93
2023-04-14T04:30:32.505Z,7.30
2023-04-14T04:33:01.851Z,6.47
2023-04-14T04:35:29.331Z,8.87
2023-04-14T04:37:58.606Z,8.90
2023-04-14T04:40:25.596Z,6.77
2023-04-14T04:42:52.366Z,6.33
2023-04-14T04:45:31.211Z,7.10
2023-04-14T04:47:58.249Z,6.70
2023-04-14T04:50:25.224Z,9.00
2023-04-14T04:52:52.063Z,7.03
2023-04-14T04:55:20.210Z,9.03
2023-04-14T04:57:47.170Z,6.90
2023-04-14T05:00:14.529Z,7.23
2023-04-14T05:02:42.103Z,6.63
2023-04-14T05:05:10.083Z,8.83
2023-04-14T05:07:37.080Z,6.83
2023-04-14T05:10:04.489Z,9.93
2023-04-14T05:12:32.678Z,5.50
2023-04-14T05:14:59.650Z,10.80
2023-04-14T05:17:27.148Z,9.10
2023-04-14T05:19:54.071Z,6.00
2023-04-14T05:22:20.940Z,7.13
2023-04-14T05:24:49.459Z,9.93
2023-04-14T05:27:16.218Z,9.90
2023-04-14T05:29:44.452Z,5.93
2023-04-14T05:32:12.847Z,11.77
2023-04-14T05:34:39.770Z,10.13
2023-04-14T05:37:06.859Z,10.73
2023-04-14T05:39:33.654Z,9.87
2023-04-14T05:42:01.204Z,8.33
2023-04-14T05:44:28.420Z,11.37
2023-04-14T05:46:56.926Z,7.23
2023-04-14T05:49:23.897Z,8.97
2023-04-14T05:51:50.896Z,10.67
2023-04-14T05:54:17.650Z,7.63
2023-04-14T05:56:44.462Z,8.20
2023-04-14T05:59:11.350Z,9.40
2023-04-14T06:01:38.337Z,14.23
2023-04-14T06:04:07.145Z,10.33
2023-04-14T06:06:34.724Z,14.70
2023-04-14T06:09:01.773Z,13.37
2023-04-14T06:11:28.786Z,15.27
2023-04-14T06:13:55.766Z,17.50
2023-04-14T06:16:22.649Z,14.73
2023-04-14T06:18:49.547Z,19.17
2023-04-14T06:21:17.770Z,16.50
2023-04-14T06:23:44.601Z,11.50
2023-04-14T06:26:12.491Z,16.90
2023-04-14T06:28:39.974Z,15.10
2023-04-14T06:31:07.873Z,28.07
2023-04-14T06:33:34.665Z,33.73
2023-04-14T06:36:02.861Z,17.30
2023-04-14T06:38:31.079Z,31.10
2023-04-14T06:40:57.850Z,13.10
2023-04-14T06:43:24.649Z,13.93
2023-04-14T06:45:51.521Z,15.03
2023-04-14T06:48:18.404Z,11.63
2023-04-14T06:50:53.175Z,18.40
2023-04-14T06:53:20.757Z,35.47
2023-04-14T06:55:49.162Z,38.37
2023-04-14T06:58:16.198Z,20.23
2023-04-14T07:00:43.023Z,30.00
2023-04-14T07:03:09.818Z,18.20
2023-04-14T07:05:36.726Z,20.23
2023-04-14T07:08:03.737Z,21.23
2023-04-14T07:10:30.796Z,24.97
2023-04-14T07:12:58.999Z,17.40
2023-04-14T07:15:25.920Z,25.13
2023-04-14T07:17:52.871Z,38.63
2023-04-14T07:20:19.741Z,25.20
2023-04-14T07:22:46.651Z,18.57
2023-04-14T07:25:13.594Z,19.70
2023-04-14T07:27:47.142Z,31.67
2023-04-14T07:30:21.325Z,21.10
2023-04-14T07:32:48.416Z,22.20
2023-04-14T07:35:15.488Z,21.63
2023-04-14T07:37:42.296Z,17.00
2023-04-14T07:40:10.132Z,20.57
2023-04-14T07:42:37.217Z,24.77
2023-04-14T07:45:04.300Z,19.13
2023-04-14T07:47:32.945Z,17.73
2023-04-14T07:49:59.990Z,18.37
2023-04-14T07:52:26.932Z,19.73
2023-04-14T07:54:53.914Z,25.10
2023-04-14T07:57:21.186Z,19.30
2023-04-14T07:59:48.280Z,19.87
2023-04-14T08:02:15.330Z,22.90
2023-04-14T08:04:44.424Z,18.03
2023-04-14T08:07:11.486Z,22.20
2023-04-14T08:09:39.086Z,21.63
2023-04-14T08:12:06.366Z,19.87
2023-04-14T08:14:33.559Z,20.27
2023-04-14T08:17:00.501Z,18.33
2023-04-14T08:19:27.353Z,21.50
2023-04-14T08:21:55.678Z,22.07
2023-04-14T08:24:22.547Z,21.70
2023-04-14T08:26:49.367Z,21.23
2023-04-14T08:29:16.222Z,19.67
2023-04-14T08:31:43.078Z,17.00
2023-04-14T08:34:09.929Z,20.40
2023-04-14T08:36:36.857Z,19.17
2023-04-14T08:39:05.125Z,18.50
2023-04-14T08:41:34.671Z,23.00
2023-04-14T08:44:01.678Z,18.77
2023-04-14T08:46:29.006Z,22.47
2023-04-14T08:49:03.256Z,17.13
2023-04-14T08:51:33.297Z,18.70
2023-04-14T08:54:01.548Z,19.17
2023-04-14T08:56:33.786Z,18.73
2023-04-14T08:59:02.013Z,19.07
2023-04-14T09:01:29.539Z,22.27
2023-04-14T09:03:57.731Z,18.53
2023-04-14T09:06:25.451Z,15.53
2023-04-14T09:08:53.012Z,16.27
2023-04-14T09:11:20.002Z,18.50
2023-04-14T09:13:49.755Z,16.90
2023-04-14T09:16:17.600Z,18.20
2023-04-14T09:18:47.233Z,15.63
2023-04-14T09:21:29.234Z,16.33
2023-04-14T09:24:05.185Z,16.67
2023-04-14T09:26:32.084Z,15.17
2023-04-14T09:29:01.250Z,17.93
2023-04-14T09:31:28.640Z,13.37
2023-04-14T09:33:55.598Z,13.27
2023-04-14T09:36:23.929Z,15.70
2023-04-14T09:38:51.965Z,14.50
2023-04-14T09:41:19.843Z,13.17
2023-04-14T09:43:47.081Z,18.20
2023-04-14T09:46:15.724Z,16.13
2023-04-14T09:48:53.183Z,14.50
2023-04-14T09:51:23.358Z,16.50
2023-04-14T09:53:53.195Z,14.87
2023-04-14T09:56:27.060Z,20.13
2023-04-14T09:58:58.289Z,15.83
2023-04-14T10:01:29.917Z,16.40
2023-04-14T10:03:56.798Z,12.03
2023-04-14T10:06:24.957Z,11.97
2023-04-14T10:08:53.732Z,16.17
2023-04-14T10:11:23.029Z,14.47
2023-04-14T10:13:55.190Z,12.80
2023-04-14T10:16:22.518Z,12.57
2023-04-14T10:18:51.973Z,10.73
2023-04-14T10:21:21.982Z,10.43
2023-04-14T10:23:49.360Z,11.07
2023-04-14T10:26:17.138Z,9.20
2023-04-14T10:28:47.072Z,10.87
2023-04-14T10:31:20.190Z,10.07
2023-04-14T10:33:47.250Z,10.87
2023-04-14T10:36:23.561Z,10.03
2023-04-14T10:38:50.513Z,10.37
2023-04-14T10:41:17.458Z,7.13
2023-04-14T10:43:44.357Z,10.17
2023-04-14T10:46:11.751Z,9.80
2023-04-14T10:48:39.529Z,9.63
2023-04-14T10:51:07.513Z,6.33
2023-04-14T10:53:45.152Z,11.23
2023-04-14T10:56:12.230Z,8.27
2023-04-14T10:58:39.495Z,5.93
2023-04-14T11:01:26.037Z,8.27
2023-04-14T11:03:54.996Z,7.47
2023-04-14T11:06:54.973Z,8.77
2023-04-14T11:09:32.015Z,6.50
2023-04-14T11:12:22.044Z,5.40
2023-04-14T11:14:48.906Z,6.50
2023-04-14T11:17:22.051Z,9.83
2023-04-14T11:19:52.808Z,6.33
2023-04-14T11:22:37.365Z,7.60
2023-04-14T11:25:06.957Z,6.50
2023-04-14T11:27:34.608Z,7.13
2023-04-14T11:30:01.872Z,7.23
2023-04-14T11:32:28.804Z,4.63
2023-04-14T11:34:55.831Z,8.53
2023-04-14T11:37:23.024Z,10.27
2023-04-14T11:39:50.331Z,6.57
2023-04-14T11:42:19.750Z,11.67
2023-04-14T11:44:47.628Z,6.23
2023-04-14T11:47:21.424Z,6.90
2023-04-14T11:49:48.308Z,4.10
2023-04-14T11:52:15.147Z,6.37
2023-04-14T11:54:42.042Z,5.80
2023-04-14T11:57:10.374Z,5.93
2023-04-14T11:59:43.576Z,6.63
2023-04-14T12:02:17.436Z,5.10
2023-04-14T12:04:45.804Z,3.93
2023-04-14T12:07:14.557Z,5.13
2023-04-14T12:09:44.650Z,8.87
2023-04-14T12:12:12.454Z,7.03
2023-04-14T12:14:39.902Z,8.50
2023-04-14T12:17:09.202Z,5.40
2023-04-14T12:19:37.262Z,4.50
2023-04-14T12:22:04.659Z,4.30
2023-04-14T12:24:35.666Z,14.07
2023-04-14T12:27:04.838Z,6.67
2023-04-14T12:29:32.743Z,3.23
2023-04-14T12:31:59.863Z,3.37
2023-04-14T12:34:29.530Z,4.90
2023-04-14T12:36:56.601Z,4.27
2023-04-14T12:39:26.063Z,4.90
2023-04-14T12:41:53.568Z,4.77
2023-04-14T12:44:21.496Z,5.30
2023-04-14T12:46:49.859Z,5.13
2023-04-14T12:49:36.219Z,4.17
2023-04-14T12:52:04.549Z,4.03
2023-04-14T12:54:52.099Z,4.40
2023-04-14T12:57:22.571Z,3.83
2023-04-14T12:59:50.398Z,6.40
2023-04-14T13:02:17.764Z,4.17
2023-04-14T13:04:46.040Z,4.87
2023-04-14T13:07:12.868Z,3.80
2023-04-14T13:09:39.660Z,7.90
2023-04-14T13:12:06.657Z,4.23
2023-04-14T13:14:33.503Z,6.23
2023-04-14T13:17:00.407Z,7.20
2023-04-14T13:19:27.273Z,3.53
2023-04-14T13:21:55.484Z,6.47
2023-04-14T13:24:22.302Z,5.17
2023-04-14T13:26:49.213Z,4.80
2023-04-14T13:29:16.120Z,4.40
2023-04-14T13:31:43.017Z,3.60
2023-04-14T13:34:11.202Z,4.30
2023-04-14T13:36:38.117Z,5.00
2023-04-14T13:39:06.288Z,4.83
2023-04-14T13:41:33.195Z,6.07
2023-04-14T13:44:04.232Z,3.43
2023-04-14T13:46:36.227Z,3.23
2023-04-14T13:49:07.540Z,4.03
2023-04-14T13:51:34.544Z,3.37
2023-04-14T13:54:03.234Z,3.57
2023-04-14T13:56:31.397Z,3.23
2023-04-14T13:58:58.376Z,3.50
2023-04-14T14:01:25.818Z,3.40
2023-04-14T14:03:52.975Z,3.40
2023-04-14T14:06:19.945Z,3.60
2023-04-14T14:08:46.761Z,4.70
2023-04-14T14:11:14.028Z,6.47
2023-04-14T14:13:42.313Z,4.60
2023-04-14T14:16:09.455Z,3.20
2023-04-14T14:18:37.847Z,4.63
2023-04-14T14:21:05.224Z,5.93
2023-04-14T14:23:32.341Z,4.60
2023-04-14T14:25:59.273Z,4.17
2023-04-14T14:28:26.148Z,4.20
2023-04-14T14:30:54.310Z,5.63
2023-04-14T14:33:21.147Z,4.80
2023-04-14T14:35:48.048Z,3.27
2023-04-14T14:38:15.355Z,3.03
2023-04-14T14:40:42.267Z,4.83
2023-04-14T14:43:09.487Z,5.03
2023-04-14T14:45:36.503Z,6.20
2023-04-14T14:48:05.360Z,7.17
2023-04-14T14:50:32.131Z,5.20
2023-04-14T14:52:58.928Z,3.60
2023-04-14T14:55:25.877Z,4.57
2023-04-14T14:57:52.814Z,3.80
2023-04-14T15:00:20.084Z,5.97
2023-04-14T15:02:47.115Z,3.83
2023-04-14T15:05:15.592Z,4.73
2023-04-14T15:07:42.800Z,4.67
2023-04-14T15:10:09.783Z,5.07
2023-04-14T15:12:36.534Z,2.83
2023-04-14T15:15:04.969Z,3.20
2023-04-14T15:17:33.409Z,6.67
2023-04-14T15:20:04.485Z,5.27
2023-04-14T15:22:32.994Z,6.03
2023-04-14T15:24:59.842Z,2.27
2023-04-14T15:27:26.656Z,8.27
2023-04-14T15:29:54.639Z,3.17
2023-04-14T15:32:26.571Z,4.07
2023-04-14T15:34:54.265Z,4.07
2023-04-14T15:37:21.312Z,2.30
2023-04-14T15:39:50.151Z,3.67
2023-04-14T15:42:16.906Z,7.17
2023-04-14T15:44:43.688Z,11.87
2023-04-14T15:47:10.871Z,7.93
2023-04-14T15:49:37.655Z,3.40
2023-04-14T15:52:05.867Z,3.23
2023-04-14T15:54:33.611Z,4.77
2023-04-14T15:57:02.320Z,4.90
2023-04-14T15:59:29.490Z,3.17
2023-04-14T16:01:56.623Z,4.13
2023-04-14T16:04:23.840Z,3.60
2023-04-14T16:06:51.256Z,4.10
2023-04-14T16:09:18.171Z,5.80
2023-04-14T16:11:45.094Z,2.73
2023-04-14T16:14:13.728Z,2.53
2023-04-14T16:16:40.628Z,2.07
2023-04-14T16:19:07.449Z,5.60
2023-04-14T16:21:34.273Z,3.87
2023-04-14T16:24:01.634Z,3.30
2023-04-14T16:26:28.733Z,3.10
2023-04-14T16:28:55.568Z,3.30
2023-04-14T16:31:23.793Z,2.57
2023-04-14T16:33:50.822Z,5.90
2023-04-14T16:36:19.053Z,4.33
2023-04-14T16:38:45.910Z,2.10
2023-04-14T16:41:12.691Z,3.13
2023-04-14T16:43:39.525Z,2.67
2023-04-14T16:46:07.881Z,3.80
2023-04-14T16:48:36.990Z,3.03
2023-04-14T16:51:04.597Z,4.30
2023-04-14T16:53:31.387Z,3.73
2023-04-14T16:56:03.270Z,1.93
2023-04-14T16:58:30.361Z,5.63
2023-04-14T17:00:57.403Z,3.37
2023-04-14T17:03:24.441Z,5.00
2023-04-14T17:05:52.737Z,4.03
2023-04-14T17:08:19.649Z,3.53
2023-04-14T17:10:46.595Z,4.40
2023-04-14T17:13:13.426Z,2.53
2023-04-14T17:15:42.346Z,3.27
2023-04-14T17:18:09.128Z,3.37
2023-04-14T17:20:36.070Z,5.67
2023-04-14T17:23:04.321Z,4.57
2023-04-14T17:25:32.573Z,3.70
2023-04-14T17:27:59.493Z,3.50
2023-04-14T17:30:27.178Z,3.80
2023-04-14T17:32:55.156Z,3.20
2023-04-14T17:35:22.034Z,2.93
2023-04-14T17:37:48.890Z,5.20
2023-04-14T17:40:17.173Z,2.23
2023-04-14T17:42:44.290Z,3.33
2023-04-14T17:45:11.850Z,6.37
2023-04-14T17:47:39.825Z,4.60
2023-04-14T17:50:07.627Z,2.13
2023-04-14T17:52:35.806Z,4.20
2023-04-14T17:55:03.637Z,3.33
2023-04-14T17:57:31.743Z,2.30
2023-04-14T17:59:59.052Z,3.30
2023-04-14T18:02:25.972Z,4.07
2023-04-14T18:04:52.940Z,3.17
2023-04-14T18:07:19.764Z,3.67
2023-04-14T18:09:46.606Z,4.33
2023-04-14T18:12:13.787Z,3.83
2023-04-14T18:14:41.992Z,4.07
2023-04-14T18:17:08.985Z,3.97
2023-04-14T18:19:35.934Z,6.37
2023-04-14T18:22:03.301Z,3.00
2023-04-14T18:26:59.956Z,4.37
2023-04-14T18:29:29.526Z,4.50
2023-04-14T18:31:58.337Z,4.33
2023-04-14T18:34:25.181Z,4.27
2023-04-14T18:36:52.532Z,3.23
2023-04-14T18:39:19.372Z,4.87
2023-04-14T18:41:46.286Z,2.37
2023-04-14T18:44:15.396Z,3.73
2023-04-14T18:46:42.370Z,4.40
2023-04-14T18:49:10.714Z,4.63
2023-04-14T18:51:37.669Z,4.80
2023-04-14T18:54:04.997Z,3.30
2023-04-14T18:56:31.807Z,10.43
2023-04-14T18:58:59.836Z,5.87
2023-04-14T19:01:27.113Z,3.23
2023-04-14T19:03:56.434Z,2.80
2023-04-14T19:06:24.851Z,5.17
2023-04-14T19:08:51.738Z,5.40
2023-04-14T19:11:18.714Z,6.07
2023-04-14T19:13:45.614Z,4.57
2023-04-14T19:16:13.234Z,4.97
2023-04-14T19:18:40.561Z,4.73
2023-04-14T19:21:08.936Z,2.37
2023-04-14T19:23:38.150Z,6.43
2023-04-14T19:26:07.972Z,7.00
2023-04-14T19:28:34.925Z,7.27
2023-04-14T19:31:03.340Z,4.73
2023-04-14T19:33:30.319Z,3.87
2023-04-14T19:35:57.274Z,8.33
2023-04-14T19:38:24.138Z,5.00
2023-04-14T19:40:52.804Z,3.50
2023-04-14T19:43:19.713Z,6.03
2023-04-14T19:45:51.426Z,2.67
2023-04-14T19:48:23.477Z,8.00
2023-04-14T19:50:52.189Z,3.83
2023-04-14T19:53:20.030Z,4.80
2023-04-14T19:55:50.920Z,3.87
2023-04-14T19:58:21.341Z,1.90
2023-04-14T20:00:50.959Z,3.33
2023-04-14T20:03:19.181Z,4.17
2023-04-14T20:05:50.139Z,3.10
2023-04-14T20:08:17.066Z,3.13
2023-04-14T20:10:43.909Z,9.00
2023-04-14T20:13:10.744Z,7.83
2023-04-14T20:15:38.928Z,6.30
2023-04-14T20:18:06.195Z,12.43
2023-04-14T20:20:33.368Z,4.10
2023-04-14T20:23:01.406Z,5.30
2023-04-14T20:25:28.296Z,6.13
2023-04-14T20:27:55.218Z,4.17
2023-04-14T20:30:22.090Z,1.93
2023-04-14T20:32:50.440Z,4.57
2023-04-14T20:35:17.338Z,4.57
2023-04-14T20:37:44.200Z,5.63
2023-04-14T20:40:11.256Z,7.93
2023-04-14T20:42:38.179Z,6.97
2023-04-14T20:45:05.710Z,4.43
2023-04-14T20:47:32.597Z,5.33
2023-04-14T20:50:01.655Z,3.93
2023-04-14T20:52:28.599Z,7.10
2023-04-14T20:54:55.470Z,3.67
2023-04-14T20:57:22.326Z,5.43
2023-04-14T20:59:49.504Z,3.57
2023-04-14T21:02:16.523Z,4.20
2023-04-14T21:04:43.472Z,2.77
2023-04-14T21:07:11.674Z,3.33
2023-04-14T21:09:38.386Z,2.97
2023-04-14T21:12:14.284Z,5.33
2023-04-14T21:15:40.681Z,2.40
2023-04-14T21:17:30.193Z,5.30
2023-04-14T21:19:57.462Z,5.87
2023-04-14T21:22:25.879Z,5.50
2023-04-14T21:24:52.729Z,2.93
2023-04-14T21:27:19.555Z,5.27
2023-04-14T21:29:46.370Z,3.93
2023-04-14T21:32:13.249Z,1.87
2023-04-14T21:34:40.013Z,3.10
2023-04-14T21:37:07.422Z,8.43
2023-04-14T21:39:35.624Z,4.20
2023-04-14T21:42:03.775Z,2.97
2023-04-14T21:44:30.845Z,4.43
2023-04-14T21:46:58.179Z,2.30
2023-04-14T21:49:25.031Z,3.33
2023-04-14T21:51:52.455Z,3.80
2023-04-14T21:54:19.502Z,5.60
2023-04-14T21:56:47.821Z,6.87
2023-04-14T21:59:14.684Z,6.33
2023-04-14T22:01:42.595Z,5.83
2023-04-14T22:04:11.416Z,5.73
2023-04-14T22:06:41.459Z,5.13
2023-04-14T22:09:08.309Z,6.63
2023-04-14T22:11:35.228Z,2.40
2023-04-14T22:14:05.251Z,5.97
2023-04-14T22:16:34.710Z,9.53
2023-04-14T22:19:02.422Z,7.73
2023-04-14T22:21:29.551Z,11.30
2023-04-14T22:23:57.416Z,5.40
2023-04-14T22:26:24.246Z,5.87
2023-04-14T22:28:51.378Z,6.73
2023-04-14T22:31:19.823Z,5.27
2023-04-14T22:33:46.877Z,5.40
2023-04-14T22:36:13.900Z,4.87
2023-04-14T22:38:41.847Z,3.53
2023-04-14T22:41:08.760Z,4.30
2023-04-14T22:43:35.575Z,4.77
2023-04-14T22:46:02.511Z,4.57
2023-04-14T22:48:30.806Z,4.33
2023-04-14T22:50:57.653Z,3.80
2023-04-14T22:53:24.424Z,6.00
2023-04-14T22:55:51.285Z,4.47
2023-04-14T22:58:20.062Z,6.70
2023-04-14T23:00:48.255Z,5.20
2023-04-14T23:03:15.476Z,1.97
2023-04-14T23:05:44.597Z,3.67
2023-04-14T23:08:11.441Z,4.87
2023-04-14T23:10:38.265Z,3.97
2023-04-14T23:13:05.030Z,3.20
2023-04-14T23:15:31.958Z,4.07
2023-04-14T23:17:58.982Z,5.27
2023-04-14T23:20:25.856Z,6.77
2023-04-14T23:22:54.120Z,3.73
2023-04-14T23:25:20.925Z,3.03
2023-04-14T23:27:47.820Z,2.77
2023-04-14T23:30:14.692Z,3.20
2023-04-14T23:32:41.585Z,2.80
2023-04-14T23:35:09.387Z,4.60
2023-04-14T23:37:37.140Z,5.33
2023-04-14T23:40:07.991Z,3.70
2023-04-14T23:42:34.910Z,3.00
2023-04-14T23:45:01.972Z,2.90
2023-04-14T23:47:28.847Z,4.63
2023-04-14T23:49:56.353Z,3.13
2023-04-14T23:52:23.465Z,3.17
2023-04-14T23:54:50.441Z,2.17
2023-04-14T23:57:18.872Z,4.73
2023-04-14T23:59:45.762Z,5.23
